createdAt,value
2023-05-21T00:04:18.268Z,5.00
2023-05-21T00:09:23.751Z,5.20
2023-05-21T00:14:27.850Z,5.20
2023-05-21T00:19:34.616Z,5.20
2023-05-21T00:24:40.989Z,5.40
2023-05-21T00:29:45.196Z,5.20
2023-05-21T00:34:49.624Z,5.70
2023-05-21T00:39:58.362Z,4.80
2023-05-21T00:45:04.671Z,4.30
2023-05-21T00:50:12.227Z,5.60
2023-05-21T01:00:22.380Z,5.70
2023-05-21T01:05:28.370Z,4.20
2023-05-21T01:10:33.379Z,5.40
2023-05-21T01:15:39.567Z,5.10
2023-05-21T01:20:48.790Z,5.60
2023-05-21T01:25:53.550Z,5.40
2023-05-21T01:31:01.620Z,4.60
2023-05-21T01:36:16.585Z,5.40
2023-05-21T01:41:22.233Z,4.90
2023-05-21T01:46:29.400Z,4.40
2023-05-21T01:51:33.998Z,5.60
2023-05-21T01:56:38.223Z,5.70
2023-05-21T02:01:42.668Z,4.80
2023-05-21T02:06:46.770Z,4.30
2023-05-21T02:11:50.582Z,4.90
2023-05-21T02:16:55.703Z,4.70
2023-05-21T02:22:00.533Z,5.00
2023-05-21T02:27:07.731Z,5.80
2023-05-21T02:32:12.265Z,3.80
2023-05-21T02:37:18.142Z,4.70
2023-05-21T02:42:25.301Z,5.40
2023-05-21T02:47:29.724Z,4.70
2023-05-21T02:52:34.197Z,5.50
2023-05-21T02:57:38.516Z,4.80
2023-05-21T03:02:43.779Z,4.40
2023-05-21T03:07:48.802Z,4.80
2023-05-21T03:12:54.238Z,4.20
2023-05-21T03:17:58.699Z,4.50
2023-05-21T03:23:05.462Z,4.40
2023-05-21T03:28:13.784Z,5.60
2023-05-21T03:33:18.220Z,6.30
2023-05-21T03:38:23.144Z,4.30
2023-05-21T03:43:27.808Z,4.60
2023-05-21T03:48:32.594Z,4.40
2023-05-21T03:53:37.995Z,4.10
2023-05-21T03:58:42.702Z,4.40
2023-05-21T04:03:47.998Z,4.60
2023-05-21T04:08:53.503Z,3.60
2023-05-21T04:13:57.490Z,4.20
2023-05-21T04:19:02.261Z,4.00
2023-05-21T04:24:06.978Z,3.80
2023-05-21T04:29:11.551Z,3.10
2023-05-21T04:34:19.937Z,3.50
2023-05-21T04:39:24.218Z,3.70
2023-05-21T04:44:28.292Z,3.30
2023-05-21T04:49:36.438Z,2.80
2023-05-21T04:54:42.383Z,3.30
2023-05-21T04:59:48.864Z,2.70
2023-05-21T05:04:53.723Z,2.90
2023-05-21T05:09:58.301Z,2.90
2023-05-21T05:15:03.085Z,3.10
2023-05-21T05:20:12.230Z,2.40
2023-05-21T05:25:17.562Z,3.00
2023-05-21T05:30:22.394Z,2.70
2023-05-21T05:35:26.126Z,2.40
2023-05-21T05:40:30.421Z,1.90
2023-05-21T05:45:35.444Z,1.50
2023-05-21T05:50:39.461Z,1.30
2023-05-21T05:55:44.205Z,2.00
2023-05-21T06:00:49.537Z,2.70
2023-05-21T06:05:54.291Z,1.80
2023-05-21T06:10:58.434Z,1.80
2023-05-21T06:16:02.221Z,1.30
2023-05-21T06:21:07.011Z,1.30
2023-05-21T06:26:14.165Z,1.30
2023-05-21T06:31:19.326Z,1.60
2023-05-21T06:36:30.414Z,1.50
2023-05-21T06:41:35.693Z,1.50
2023-05-21T06:46:41.450Z,1.50
2023-05-21T06:51:46.363Z,1.70
2023-05-21T06:56:51.315Z,1.90
2023-05-21T07:01:55.578Z,1.20
2023-05-21T07:07:00.680Z,2.20
2023-05-21T07:12:07.369Z,2.00
2023-05-21T07:17:11.486Z,1.40
2023-05-21T07:22:16.327Z,2.30
2023-05-21T07:27:25.837Z,1.10
2023-05-21T07:32:31.668Z,1.30
2023-05-21T07:37:37.040Z,1.40
2023-05-21T07:42:41.950Z,1.40
2023-05-21T07:47:47.409Z,1.70
2023-05-21T07:52:51.894Z,1.20
2023-05-21T07:57:56.699Z,1.70
2023-05-21T08:03:01.705Z,1.70
2023-05-21T08:08:10.555Z,1.80
2023-05-21T08:13:17.922Z,2.10
2023-05-21T08:18:24.766Z,2.20
2023-05-21T08:23:35.006Z,1.80
2023-05-21T08:28:41.017Z,1.40
2023-05-21T08:33:53.031Z,1.90
2023-05-21T08:38:58.968Z,2.10
2023-05-21T08:44:05.503Z,2.40
2023-05-21T08:49:14.917Z,2.20
2023-05-21T08:54:19.657Z,1.80
2023-05-21T08:59:24.380Z,1.80
2023-05-21T09:04:29.627Z,2.10
2023-05-21T09:09:37.214Z,2.00
2023-05-21T09:14:48.014Z,2.00
2023-05-21T09:20:14.141Z,2.10
2023-05-21T09:25:25.862Z,2.00
2023-05-21T09:30:34.915Z,1.90
2023-05-21T09:35:47.949Z,2.00
2023-05-21T09:40:52.368Z,2.20
2023-05-21T09:46:00.452Z,2.10
2023-05-21T09:51:13.748Z,2.10
2023-05-21T09:56:45.138Z,2.00
2023-05-21T10:01:53.894Z,2.70
2023-05-21T10:07:00.969Z,2.40
2023-05-21T10:12:09.106Z,2.10
2023-05-21T10:17:15.472Z,2.60
2023-05-21T10:22:21.109Z,2.20
2023-05-21T10:27:28.440Z,2.30
2023-05-21T10:32:36.280Z,1.80
2023-05-21T10:37:40.767Z,2.20
2023-05-21T10:43:13.830Z,2.40
2023-05-21T10:48:28.445Z,2.50
2023-05-21T10:54:00.477Z,1.80
2023-05-21T10:59:26.889Z,2.00
2023-05-21T11:04:31.533Z,2.10
2023-05-21T11:09:35.291Z,2.20
2023-05-21T11:14:43.563Z,2.00
2023-05-21T11:19:50.053Z,1.70
2023-05-21T11:25:00.496Z,2.30
2023-05-21T11:30:20.147Z,2.00
2023-05-21T11:35:25.698Z,2.20
2023-05-21T11:40:31.343Z,1.80
2023-05-21T11:45:36.670Z,1.70
2023-05-21T11:50:43.403Z,2.10
2023-05-21T11:55:48.957Z,1.80
2023-05-21T12:06:07.700Z,2.70
2023-05-21T12:11:12.338Z,2.60
2023-05-21T12:16:17.228Z,2.40
2023-05-21T12:21:21.897Z,2.50
2023-05-21T12:31:36.056Z,2.20
2023-05-21T12:36:51.043Z,2.00
2023-05-21T12:41:55.695Z,2.30
2023-05-21T12:47:00.362Z,2.10
2023-05-21T12:52:06.772Z,2.20
2023-05-21T12:57:19.185Z,2.40
2023-05-21T13:02:32.381Z,2.20
2023-05-21T13:07:39.652Z,2.20
2023-05-21T13:12:45.875Z,2.30
2023-05-21T13:17:50.676Z,1.60
2023-05-21T13:22:56.342Z,2.00
2023-05-21T13:28:05.827Z,2.30
2023-05-21T13:33:12.097Z,1.90
2023-05-21T13:38:17.364Z,2.80
2023-05-21T13:43:22.698Z,1.90
2023-05-21T13:48:28.809Z,2.30
2023-05-21T13:53:34.176Z,2.00
2023-05-21T13:58:41.801Z,2.30
2023-05-21T14:03:50.878Z,2.40
2023-05-21T14:08:55.869Z,2.10
2023-05-21T14:14:04.217Z,2.40
2023-05-21T14:19:08.845Z,2.20
2023-05-21T14:24:14.279Z,2.20
2023-05-21T14:34:29.700Z,2.40
2023-05-21T14:39:35.997Z,2.70
2023-05-21T14:44:41.738Z,2.50
2023-05-21T14:54:58.346Z,2.30
2023-05-21T15:00:03.269Z,2.50
2023-05-21T15:05:08.937Z,2.10
2023-05-21T15:10:17.278Z,1.90
2023-05-21T15:15:22.774Z,2.30
2023-05-21T15:20:26.876Z,2.30
2023-05-21T15:25:30.708Z,2.10
2023-05-21T15:30:35.736Z,2.60
2023-05-21T15:35:42.309Z,2.30
2023-05-21T15:40:48.183Z,2.40
2023-05-21T15:45:52.580Z,2.50
2023-05-21T15:50:57.104Z,2.00
2023-05-21T15:56:03.752Z,2.90
2023-05-21T16:01:09.140Z,2.50
2023-05-21T16:06:14.540Z,2.30
2023-05-21T16:11:20.153Z,2.40
2023-05-21T16:21:29.180Z,2.70
2023-05-21T16:26:32.861Z,2.40
2023-05-21T16:31:39.270Z,2.60
2023-05-21T16:36:44.177Z,2.30
2023-05-21T16:41:49.078Z,2.90
2023-05-21T16:46:54.101Z,2.60
2023-05-21T16:51:58.184Z,2.80
2023-05-21T16:57:02.866Z,2.40
2023-05-21T17:02:10.347Z,2.40
2023-05-21T17:07:24.233Z,3.50
2023-05-21T17:12:36.420Z,2.80
2023-05-21T17:17:44.526Z,3.10
2023-05-21T17:22:51.971Z,2.40
2023-05-21T17:27:59.418Z,2.10
2023-05-21T17:33:10.879Z,3.20
2023-05-21T17:38:34.725Z,2.50
2023-05-21T17:43:44.507Z,2.90
2023-05-21T17:53:55.217Z,3.10
2023-05-21T17:59:04.886Z,3.00
2023-05-21T18:04:14.240Z,2.50
2023-05-21T18:09:19.024Z,3.40
2023-05-21T18:14:23.118Z,3.90
2023-05-21T18:19:27.665Z,2.80
2023-05-21T18:24:33.509Z,2.80
2023-05-21T18:29:38.436Z,2.40
2023-05-21T18:34:44.466Z,3.20
2023-05-21T18:39:52.041Z,2.50
2023-05-21T18:44:57.431Z,2.20
2023-05-21T18:50:01.584Z,2.40
2023-05-21T18:55:07.480Z,3.00
2023-05-21T19:00:13.754Z,2.90
2023-05-21T19:05:20.294Z,3.30
2023-05-21T19:10:25.518Z,3.90
2023-05-21T19:15:29.944Z,2.80
2023-05-21T19:20:38.217Z,3.90
2023-05-21T19:25:44.593Z,2.80
2023-05-21T19:30:49.792Z,3.20
2023-05-21T19:35:54.788Z,3.70
2023-05-21T19:41:00.640Z,2.90
2023-05-21T19:46:07.150Z,3.30
2023-05-21T19:51:13.975Z,2.90
2023-05-21T20:01:33.748Z,3.30
2023-05-21T20:06:40.109Z,3.00
2023-05-21T20:11:46.232Z,2.80
2023-05-21T20:16:56.192Z,4.10
2023-05-21T20:22:01.173Z,3.60
2023-05-21T20:27:06.570Z,3.40
2023-05-21T20:32:11.436Z,3.80
2023-05-21T20:37:16.183Z,3.20
2023-05-21T20:42:21.749Z,3.10
2023-05-21T20:47:30.629Z,2.80
2023-05-21T20:52:44.896Z,3.30
2023-05-21T20:57:51.235Z,3.60
2023-05-21T21:02:56.399Z,2.70
2023-05-21T21:08:03.214Z,2.80
2023-05-21T21:13:08.796Z,3.20
2023-05-21T21:18:15.467Z,3.10
2023-05-21T21:23:20.385Z,2.80
2023-05-21T21:28:25.270Z,3.00
2023-05-21T21:33:29.775Z,2.90
2023-05-21T21:38:34.405Z,3.70
2023-05-21T21:43:39.075Z,4.30
2023-05-21T21:48:44.921Z,3.90
2023-05-21T21:53:49.162Z,4.50
2023-05-21T21:58:54.098Z,3.80
2023-05-21T22:03:58.795Z,3.40
2023-05-21T22:09:04.539Z,3.20
2023-05-21T22:14:13.138Z,3.10
2023-05-21T22:19:21.546Z,3.70
2023-05-21T22:24:32.520Z,5.00
2023-05-21T22:29:38.997Z,3.80
2023-05-21T22:34:44.452Z,2.80
2023-05-21T22:39:49.211Z,3.60
2023-05-21T22:44:55.027Z,3.40
2023-05-21T22:50:02.384Z,3.40
2023-05-21T22:55:11.776Z,3.90
2023-05-21T23:00:20.114Z,3.40
2023-05-21T23:05:25.954Z,4.10
2023-05-21T23:10:32.310Z,3.90
2023-05-21T23:15:40.028Z,3.60
2023-05-21T23:20:46.595Z,3.50
2023-05-21T23:25:54.626Z,4.60
2023-05-21T23:31:00.052Z,3.70
2023-05-21T23:36:05.481Z,3.70
2023-05-21T23:41:10.405Z,4.20
2023-05-21T23:46:16.014Z,3.70
2023-05-21T23:51:22.658Z,3.30
2023-05-21T23:56:27.624Z,4.10
